Observation data for Guthrie on 09/11/2019      Previous  Date  Next       Current Mesonet Observations  Soil Data  Daily Summary Page  Observations in Plain Language
KPFS 110500Z 16015G20KT 28/14 A3003 RMK A01 T02840139  RH  043%=      5-min Rain = 0
KPFS 110505Z 16013G19KT 28/14 A3003 RMK A01 T02830140  RH  043%=      5-min Rain = 0
KPFS 110510Z 15016G24KT 28/14 A3003 RMK A01 T02820140  RH  044%=      5-min Rain = 0
KPFS 110515Z 15015G20KT 28/14 A3003 RMK A01 T02810142  RH  044%=      5-min Rain = 0
KPFS 110520Z 16016G25KT 28/14 A3003 RMK A01 T02800143  RH  045%=      5-min Rain = 0
KPFS 110525Z 16017G28KT 28/15 A3002 RMK A01 T02790145  RH  046%=      5-min Rain = 0
KPFS 110530Z 16019G25KT 28/15 A3003 RMK A01 T02780146  RH  047%=      5-min Rain = 0
KPFS 110535Z 16018G24KT 28/15 A3003 RMK A01 T02770147  RH  047%=      5-min Rain = 0
KPFS 110540Z 16017G24KT 28/15 A3003 RMK A01 T02760148  RH  048%=      5-min Rain = 0
KPFS 110545Z 16015G21KT 28/15 A3003 RMK A01 T02750148  RH  048%=      5-min Rain = 0
KPFS 110550Z 16015G20KT 27/15 A3003 RMK A01 T02740149  RH  048%=      5-min Rain = 0
KPFS 110555Z 16014G20KT 27/15 A3003 RMK A01 T02730149  RH  049%=      5-min Rain = 0
KPFS 110600Z 16014G20KT 27/15 A3003 RMK A01 T02720149  RH  049%=      5-min Rain = 0
KPFS 110605Z 17014G20KT 27/15 A3004 RMK A01 T02710149  RH  049%=      5-min Rain = 0
KPFS 110610Z 16015G21KT 27/15 A3004 RMK A01 T02710150  RH  050%=      5-min Rain = 0
KPFS 110615Z 16014G19KT 27/15 A3003 RMK A01 T02700150  RH  050%=      5-min Rain = 0
KPFS 110620Z 17012G18KT 27/15 A3003 RMK A01 T02690150  RH  051%=      5-min Rain = 0
KPFS 110625Z 17013G19KT 27/15 A3003 RMK A01 T02680151  RH  051%=      5-min Rain = 0
KPFS 110630Z 17012G17KT 27/15 A3003 RMK A01 T02680152  RH  051%=      5-min Rain = 0
KPFS 110635Z 17013G18KT 27/15 A3004 RMK A01 T02670153  RH  052%=      5-min Rain = 0
KPFS 110640Z 17015G22KT 27/15 A3004 RMK A01 T02680154  RH  052%=      5-min Rain = 0
KPFS 110645Z 18014G20KT 27/16 A3004 RMK A01 T02670155  RH  052%=      5-min Rain = 0
KPFS 110650Z 18013G19KT 27/16 A3004 RMK A01 T02660155  RH  053%=      5-min Rain = 0
KPFS 110655Z 17013G18KT 27/16 A3004 RMK A01 T02650155  RH  053%=      5-min Rain = 0
KPFS 110700Z 17011KT 26/16 A3004 RMK A01 T02630155  RH  054%=      5-min Rain = 0
KPFS 110705Z 17010KT 26/16 A3004 RMK A01 T02620155  RH  054%=      5-min Rain = 0
KPFS 110710Z 17010KT 26/16 A3004 RMK A01 T02610155  RH  055%=      5-min Rain = 0
KPFS 110715Z 17010KT 26/16 A3004 RMK A01 T02590155  RH  055%=      5-min Rain = 0
KPFS 110720Z 17010KT 26/16 A3004 RMK A01 T02580155  RH  056%=      5-min Rain = 0
KPFS 110725Z 17009KT 26/16 A3004 RMK A01 T02570155  RH  056%=      5-min Rain = 0
KPFS 110730Z 17009KT 26/16 A3004 RMK A01 T02550155  RH  056%=      5-min Rain = 0
KPFS 110735Z 18008KT 25/16 A3004 RMK A01 T02540155  RH  057%=      5-min Rain = 0
KPFS 110740Z 17009KT 25/16 A3005 RMK A01 T02520155  RH  058%=      5-min Rain = 0
KPFS 110745Z 17009KT 25/16 A3004 RMK A01 T02500155  RH  058%=      5-min Rain = 0
KPFS 110750Z 17009KT 25/16 A3004 RMK A01 T02490155  RH  058%=      5-min Rain = 0
KPFS 110755Z 17009KT 25/16 A3004 RMK A01 T02470155  RH  059%=      5-min Rain = 0
KPFS 110800Z 18008KT 25/16 A3004 RMK A01 T02470155  RH  059%=      5-min Rain = 0
KPFS 110805Z 19008KT 25/16 A3004 RMK A01 T02460155  RH  060%=      5-min Rain = 0
KPFS 110810Z 18009KT 25/16 A3004 RMK A01 T02460156  RH  060%=      5-min Rain = 0
KPFS 110815Z 17008KT 25/16 A3004 RMK A01 T02450156  RH  060%=      5-min Rain = 0
KPFS 110820Z 18008KT 24/16 A3003 RMK A01 T02440156  RH  061%=      5-min Rain = 0
KPFS 110825Z 17008KT 24/16 A3003 RMK A01 T02430156  RH  061%=      5-min Rain = 0
KPFS 110830Z 17009KT 24/16 A3003 RMK A01 T02420156  RH  062%=      5-min Rain = 0
KPFS 110835Z 17009KT 24/16 A3003 RMK A01 T02410156  RH  062%=      5-min Rain = 0
KPFS 110840Z 17009KT 24/16 A3003 RMK A01 T02400157  RH  063%=      5-min Rain = 0
KPFS 110845Z 16009KT 24/16 A3003 RMK A01 T02380156  RH  063%=      5-min Rain = 0
KPFS 110850Z 17008KT 24/16 A3003 RMK A01 T02360156  RH  064%=      5-min Rain = 0
KPFS 110855Z 17008KT 24/16 A3004 RMK A01 T02350156  RH  064%=      5-min Rain = 0
KPFS 110900Z 17008KT 24/16 A3004 RMK A01 T02350157  RH  064%=      5-min Rain = 0
KPFS 110905Z 17008KT 23/16 A3004 RMK A01 T02340157  RH  065%=      5-min Rain = 0
KPFS 110910Z 17008KT 23/16 A3003 RMK A01 T02340157  RH  065%=      5-min Rain = 0
KPFS 110915Z 18008KT 23/16 A3003 RMK A01 T02340157  RH  065%=      5-min Rain = 0
KPFS 110920Z 18007KT 23/16 A3003 RMK A01 T02340157  RH  065%=      5-min Rain = 0
KPFS 110925Z 17007KT 23/16 A3004 RMK A01 T02310157  RH  066%=      5-min Rain = 0
KPFS 110930Z 16007KT 23/16 A3004 RMK A01 T02300157  RH  066%=      5-min Rain = 0
KPFS 110935Z 16008KT 23/16 A3004 RMK A01 T02280157  RH  067%=      5-min Rain = 0
KPFS 110940Z 16009KT 23/16 A3004 RMK A01 T02280157  RH  067%=      5-min Rain = 0
KPFS 110945Z 16009KT 23/16 A3004 RMK A01 T02280157  RH  067%=      5-min Rain = 0
KPFS 110950Z 16009KT 23/16 A3003 RMK A01 T02280157  RH  068%=      5-min Rain = 0
KPFS 110955Z 16011KT 23/16 A3003 RMK A01 T02280158  RH  068%=      5-min Rain = 0
KPFS 111000Z 16010KT 23/16 A3003 RMK A01 T02290158  RH  067%=      5-min Rain = 0
KPFS 111005Z 15010KT 23/16 A3003 RMK A01 T02280158  RH  068%=      5-min Rain = 0
KPFS 111010Z 15010KT 23/16 A3003 RMK A01 T02260158  RH  068%=      5-min Rain = 0
KPFS 111015Z 16011KT 23/16 A3004 RMK A01 T02260159  RH  069%=      5-min Rain = 0
KPFS 111020Z 16012KT 23/16 A3004 RMK A01 T02270160  RH  069%=      5-min Rain = 0
KPFS 111025Z 16011KT 23/16 A3004 RMK A01 T02270160  RH  069%=      5-min Rain = 0
KPFS 111030Z 16011G16KT 23/16 A3004 RMK A01 T02260160  RH  069%=      5-min Rain = 0
KPFS 111035Z 16011G16KT 23/16 A3004 RMK A01 T02260159  RH  069%=      5-min Rain = 0
KPFS 111040Z 16011KT 23/16 A3004 RMK A01 T02270159  RH  069%=      5-min Rain = 0
KPFS 111045Z 16011KT 23/16 A3004 RMK A01 T02260159  RH  069%=      5-min Rain = 0
KPFS 111050Z 17011KT 23/16 A3004 RMK A01 T02260159  RH  069%=      5-min Rain = 0
KPFS 111055Z 16010KT 23/16 A3004 RMK A01 T02250158  RH  069%=      5-min Rain = 0
KPFS 111100Z 16010KT 22/16 A3004 RMK A01 T02240158  RH  069%=      5-min Rain = 0
KPFS 111105Z 16010KT 22/16 A3004 RMK A01 T02240158  RH  069%=      5-min Rain = 0
KPFS 111110Z 16010KT 22/16 A3004 RMK A01 T02220158  RH  070%=      5-min Rain = 0
KPFS 111115Z 16010KT 22/16 A3004 RMK A01 T02220158  RH  070%=      5-min Rain = 0
KPFS 111120Z 16010KT 22/16 A3004 RMK A01 T02220157  RH  070%=      5-min Rain = 0
KPFS 111125Z 16010KT 22/16 A3004 RMK A01 T02210157  RH  070%=      5-min Rain = 0
KPFS 111130Z 16010KT 22/16 A3004 RMK A01 T02200157  RH  071%=      5-min Rain = 0
KPFS 111135Z 16011KT 22/16 A3004 RMK A01 T02200157  RH  071%=      5-min Rain = 0
KPFS 111140Z 17011KT 22/16 A3005 RMK A01 T02200157  RH  071%=      5-min Rain = 0
KPFS 111145Z 17011KT 22/16 A3005 RMK A01 T02200157  RH  071%=      5-min Rain = 0
KPFS 111150Z 17010KT 22/16 A3005 RMK A01 T02200157  RH  071%=      5-min Rain = 0
KPFS 111155Z 17010KT 22/16 A3005 RMK A01 T02200157  RH  071%=      5-min Rain = 0
KPFS 111200Z 17010KT 22/16 A3006 RMK A01 T02190157  RH  071%=      5-min Rain = 0
KPFS 111205Z 17009KT 22/16 A3006 RMK A01 T02190158  RH  072%=      5-min Rain = 0
KPFS 111210Z 17008KT 22/16 A3006 RMK A01 T02180158  RH  072%=      5-min Rain = 0
KPFS 111215Z 17009KT 22/16 A3006 RMK A01 T02180159  RH  072%=      5-min Rain = 0
KPFS 111220Z 17009KT 22/16 A3006 RMK A01 T02180160  RH  073%=      5-min Rain = 0
KPFS 111225Z 17010KT 22/16 A3006 RMK A01 T02180160  RH  073%=      5-min Rain = 0
KPFS 111230Z 17011KT 22/16 A3006 RMK A01 T02190161  RH  073%=      5-min Rain = 0
KPFS 111235Z 17010KT 22/16 A3007 RMK A01 T02200162  RH  073%=      5-min Rain = 0
KPFS 111240Z 17011KT 22/16 A3007 RMK A01 T02200163  RH  073%=      5-min Rain = 0
KPFS 111245Z 17010KT 22/16 A3007 RMK A01 T02200163  RH  073%=      5-min Rain = 0
KPFS 111250Z 17010KT 22/16 A3007 RMK A01 T02210163  RH  073%=      5-min Rain = 0
KPFS 111255Z 17010KT 22/16 A3007 RMK A01 T02220163  RH  073%=      5-min Rain = 0
KPFS 111300Z 17011KT 22/16 A3007 RMK A01 T02230164  RH  072%=      5-min Rain = 0
KPFS 111305Z 17011KT 22/16 A3008 RMK A01 T02240164  RH  072%=      5-min Rain = 0
KPFS 111310Z 17011KT 23/17 A3008 RMK A01 T02260165  RH  072%=      5-min Rain = 0
KPFS 111315Z 17011KT 23/17 A3009 RMK A01 T02280165  RH  071%=      5-min Rain = 0
KPFS 111320Z 18011KT 23/17 A3009 RMK A01 T02290166  RH  071%=      5-min Rain = 0
KPFS 111325Z 18011KT 23/17 A3009 RMK A01 T02300166  RH  071%=      5-min Rain = 0
KPFS 111330Z 18011KT 23/17 A3009 RMK A01 T02310166  RH  070%=      5-min Rain = 0
KPFS 111335Z 18011KT 23/17 A3009 RMK A01 T02320167  RH  070%=      5-min Rain = 0
KPFS 111340Z 18011KT 24/17 A3009 RMK A01 T02350168  RH  069%=      5-min Rain = 0
KPFS 111345Z 18011KT 24/17 A3009 RMK A01 T02390169  RH  068%=      5-min Rain = 0
KPFS 111350Z 18013G18KT 24/17 A3009 RMK A01 T02390169  RH  068%=      5-min Rain = 0
KPFS 111355Z 18011G16KT 24/17 A3009 RMK A01 T02390170  RH  069%=      5-min Rain = 0
KPFS 111400Z 18012G17KT 24/17 A3009 RMK A01 T02390170  RH  069%=      5-min Rain = 0
KPFS 111405Z 18011G17KT 24/17 A3009 RMK A01 T02400170  RH  068%=      5-min Rain = 0
KPFS 111410Z 17014G21KT 24/17 A3009 RMK A01 T02410171  RH  068%=      5-min Rain = 0
KPFS 111415Z 18013G19KT 24/17 A3009 RMK A01 T02410171  RH  068%=      5-min Rain = 0
KPFS 111420Z 18013G18KT 24/17 A3009 RMK A01 T02440172  RH  068%=      5-min Rain = 0
KPFS 111425Z 18016G22KT 25/17 A3009 RMK A01 T02460172  RH  067%=      5-min Rain = 0
KPFS 111430Z 18014G20KT 25/17 A3009 RMK A01 T02460173  RH  067%=      5-min Rain = 0
KPFS 111435Z 19013G19KT 25/17 A3009 RMK A01 T02500173  RH  066%=      5-min Rain = 0
KPFS 111440Z 19015G22KT 25/17 A3009 RMK A01 T02510174  RH  066%=      5-min Rain = 0
KPFS 111445Z 20017G24KT 25/17 A3009 RMK A01 T02520174  RH  065%=      5-min Rain = 0
KPFS 111450Z 19016G24KT 25/17 A3009 RMK A01 T02540174  RH  065%=      5-min Rain = 0
KPFS 111455Z 18014G19KT 26/18 A3009 RMK A01 T02610175  RH  062%=      5-min Rain = 0
KPFS 111500Z 18014G21KT 26/17 A3009 RMK A01 T02610174  RH  062%=      5-min Rain = 0
KPFS 111505Z 19015G22KT 26/17 A3009 RMK A01 T02590174  RH  063%=      5-min Rain = 0
KPFS 111510Z 18016G21KT 26/18 A3009 RMK A01 T02570175  RH  063%=      5-min Rain = 0
KPFS 111515Z 18017G25KT 26/18 A3009 RMK A01 T02590175  RH  063%=      5-min Rain = 0
KPFS 111520Z 18017G23KT 26/18 A3009 RMK A01 T02580175  RH  063%=      5-min Rain = 0
KPFS 111525Z 20016G22KT 26/18 A3009 RMK A01 T02580175  RH  063%=      5-min Rain = 0
KPFS 111530Z 19014G19KT 26/18 A3009 RMK A01 T02610176  RH  063%=      5-min Rain = 0
KPFS 111535Z 19015KT 26/18 A3009 RMK A01 T02620176  RH  062%=      5-min Rain = 0
KPFS 111540Z 19015G21KT 27/18 A3009 RMK A01 T02690176  RH  060%=      5-min Rain = 0
KPFS 111545Z 18015G23KT 27/18 A3009 RMK A01 T02700176  RH  060%=      5-min Rain = 0
KPFS 111550Z 19017KT 27/18 A3009 RMK A01 T02680176  RH  060%=      5-min Rain = 0
KPFS 111555Z 18016G24KT 27/18 A3009 RMK A01 T02700176  RH  059%=      5-min Rain = 0
KPFS 111600Z 18013G19KT 27/18 A3009 RMK A01 T02720176  RH  059%=      5-min Rain = 0
KPFS 111605Z 19015G24KT 27/18 A3009 RMK A01 T02740176  RH  058%=      5-min Rain = 0
KPFS 111610Z 18016G24KT 28/18 A3009 RMK A01 T02760176  RH  057%=      5-min Rain = 0
KPFS 111615Z 19016G21KT 28/18 A3009 RMK A01 T02770176  RH  057%=      5-min Rain = 0
KPFS 111620Z 19015G21KT 28/18 A3009 RMK A01 T02790176  RH  056%=      5-min Rain = 0
KPFS 111625Z 19014G19KT 28/18 A3009 RMK A01 T02780175  RH  056%=      5-min Rain = 0
KPFS 111630Z 19017G24KT 28/18 A3009 RMK A01 T02770175  RH  057%=      5-min Rain = 0
KPFS 111635Z 19013G18KT 28/18 A3009 RMK A01 T02780175  RH  056%=      5-min Rain = 0
KPFS 111640Z 18015G21KT 28/18 A3009 RMK A01 T02800175  RH  056%=      5-min Rain = 0
KPFS 111645Z 18014G22KT 28/18 A3009 RMK A01 T02820175  RH  055%=      5-min Rain = 0
KPFS 111650Z 19016G21KT 28/18 A3009 RMK A01 T02790175  RH  056%=      5-min Rain = 0
KPFS 111655Z 18014G21KT 28/18 A3009 RMK A01 T02790176  RH  056%=      5-min Rain = 0
KPFS 111700Z 18016G21KT 28/18 A3009 RMK A01 T02780175  RH  056%=      5-min Rain = 0
KPFS 111705Z 18013G18KT 28/18 A3009 RMK A01 T02790176  RH  056%=      5-min Rain = 0
KPFS 111710Z 18016G22KT 28/18 A3009 RMK A01 T02800175  RH  056%=      5-min Rain = 0
KPFS 111715Z 18014G20KT 28/18 A3009 RMK A01 T02830175  RH  055%=      5-min Rain = 0
KPFS 111720Z 18015KT 28/18 A3008 RMK A01 T02830176  RH  055%=      5-min Rain = 0
KPFS 111725Z 17014G20KT 29/18 A3008 RMK A01 T02870177  RH  054%=      5-min Rain = 0
KPFS 111730Z 17015G20KT 29/18 A3008 RMK A01 T02930176  RH  052%=      5-min Rain = 0
KPFS 111735Z 18014G21KT 29/18 A3008 RMK A01 T02860176  RH  054%=      5-min Rain = 0
KPFS 111740Z 17014G20KT 29/18 A3008 RMK A01 T02880176  RH  054%=      5-min Rain = 0
KPFS 111745Z 16014G21KT 29/18 A3008 RMK A01 T02910176  RH  053%=      5-min Rain = 0
KPFS 111750Z 17015G22KT 29/18 A3007 RMK A01 T02940175  RH  051%=      5-min Rain = 0
KPFS 111755Z 17013G20KT 30/18 A3007 RMK A01 T03010176  RH  050%=      5-min Rain = 0
KPFS 111800Z 18014G19KT 30/17 A3007 RMK A01 T03010174  RH  049%=      5-min Rain = 0
KPFS 111805Z 19014G22KT 31/18 A3006 RMK A01 T03050175  RH  048%=      5-min Rain = 0
KPFS 111810Z 18014G21KT 31/17 A3006 RMK A01 T03060174  RH  048%=      5-min Rain = 0
KPFS 111815Z 18016G23KT 31/17 A3006 RMK A01 T03060173  RH  047%=      5-min Rain = 0
KPFS 111820Z 18015G22KT 30/17 A3006 RMK A01 T03020173  RH  048%=      5-min Rain = 0
KPFS 111825Z 17016G21KT 32/17 A3006 RMK A01 T03150171  RH  044%=      5-min Rain = 0
KPFS 111830Z 16016G21KT 31/17 A3005 RMK A01 T03130170  RH  045%=      5-min Rain = 0
KPFS 111835Z 17015G21KT 31/17 A3005 RMK A01 T03120171  RH  045%=      5-min Rain = 0
KPFS 111840Z 18016G23KT 31/17 A3005 RMK A01 T03140170  RH  044%=      5-min Rain = 0
KPFS 111845Z 18016KT 32/17 A3004 RMK A01 T03150170  RH  044%=      5-min Rain = 0
KPFS 111850Z 17014G22KT 31/17 A3004 RMK A01 T03140171  RH  045%=      5-min Rain = 0
KPFS 111855Z 18016G21KT 32/17 A3004 RMK A01 T03200171  RH  043%=      5-min Rain = 0
KPFS 111900Z 19015G25KT 32/17 A3004 RMK A01 T03190171  RH  043%=      5-min Rain = 0
KPFS 111905Z 19016G21KT 32/17 A3003 RMK A01 T03230170  RH  042%=      5-min Rain = 0
KPFS 111910Z 18013G19KT 32/17 A3004 RMK A01 T03160170  RH  044%=      5-min Rain = 0
KPFS 111915Z 19014G22KT 32/17 A3003 RMK A01 T03170170  RH  044%=      5-min Rain = 0
KPFS 111920Z 18012G20KT 32/17 A3003 RMK A01 T03190171  RH  043%=      5-min Rain = 0
KPFS 111925Z 18014G22KT 32/17 A3003 RMK A01 T03160169  RH  043%=      5-min Rain = 0
KPFS 111930Z 18015G23KT 33/17 A3003 RMK A01 T03270168  RH  041%=      5-min Rain = 0
KPFS 111935Z 19016G23KT 33/17 A3002 RMK A01 T03250167  RH  041%=      5-min Rain = 0
KPFS 111940Z 18014G23KT 32/17 A3002 RMK A01 T03200167  RH  042%=      5-min Rain = 0
KPFS 111945Z 18014G21KT 33/17 A3002 RMK A01 T03270169  RH  041%=      5-min Rain = 0
KPFS 111950Z 18015G22KT 33/17 A3001 RMK A01 T03250167  RH  041%=      5-min Rain = 0
KPFS 111955Z 19015G22KT 32/17 A3001 RMK A01 T03240167  RH  041%=      5-min Rain = 0
KPFS 112000Z 19013G18KT 33/16 A30 RMK A01 T03260164  RH  040%=      5-min Rain = 0
KPFS 112005Z 16014G20KT 34/17 A30 RMK A01 T03350167  RH  039%=      5-min Rain = 0
KPFS 112010Z 17013G22KT 34/17 A2999 RMK A01 T03350166  RH  038%=      5-min Rain = 0
KPFS 112015Z 19017G23KT 34/16 A2999 RMK A01 T03360163  RH  037%=      5-min Rain = 0
KPFS 112020Z 19014G20KT 34/16 A2999 RMK A01 T03400164  RH  037%=      5-min Rain = 0
KPFS 112025Z 19014KT 33/16 A2999 RMK A01 T03340164  RH  038%=      5-min Rain = 0
KPFS 112030Z 16014G19KT 33/17 A2998 RMK A01 T03330165  RH  038%=      5-min Rain = 0
KPFS 112035Z 16016G22KT 33/16 A2998 RMK A01 T03340164  RH  038%=      5-min Rain = 0
KPFS 112040Z 17015G20KT 33/16 A2998 RMK A01 T03250164  RH  040%=      5-min Rain = 0
KPFS 112045Z 16012G18KT 33/17 A2998 RMK A01 T03340165  RH  038%=      5-min Rain = 0
KPFS 112050Z 17013G19KT 34/16 A2998 RMK A01 T03420163  RH  036%=      5-min Rain = 0
KPFS 112055Z 17013G22KT 34/16 A2997 RMK A01 T03370163  RH  037%=      5-min Rain = 0
KPFS 112100Z 17015G21KT 33/16 A2997 RMK A01 T03300163  RH  038%=      5-min Rain = 0
KPFS 112105Z 15016G22KT 34/16 A2997 RMK A01 T03350163  RH  037%=      5-min Rain = 0
KPFS 112110Z 16016G23KT 33/16 A2997 RMK A01 T03310160  RH  038%=      5-min Rain = 0
KPFS 112115Z 17014G20KT 34/16 A2997 RMK A01 T03420161  RH  036%=      5-min Rain = 0
KPFS 112120Z 17014G19KT 33/16 A2997 RMK A01 T03310162  RH  038%=      5-min Rain = 0
KPFS 112125Z 16011G18KT 33/16 A2996 RMK A01 T03290162  RH  039%=      5-min Rain = 0
KPFS 112130Z 16015G23KT 34/16 A2996 RMK A01 T03350162  RH  037%=      5-min Rain = 0
KPFS 112135Z 16017G22KT 33/16 A2996 RMK A01 T03310163  RH  039%=      5-min Rain = 0
KPFS 112140Z 16018G23KT 34/16 A2996 RMK A01 T03380163  RH  037%=      5-min Rain = 0
KPFS 112145Z 17017G23KT 34/16 A2996 RMK A01 T03380164  RH  037%=      5-min Rain = 0
KPFS 112150Z 16016G22KT 33/16 A2996 RMK A01 T03260163  RH  039%=      5-min Rain = 0
KPFS 112155Z 17020G28KT 32/17 A2996 RMK A01 T03170170  RH  044%=      5-min Rain = 0
KPFS 112200Z 18018G26KT 29/19 A2997 RMK A01 T02910185  RH  056%=      5-min Rain = 0
KPFS 112205Z 17015G20KT 28/19 A2997 RMK A01 T02820192  RH  062%=      5-min Rain = 0
KPFS 112210Z 16015G24KT 27/20 A2997 RMK A01 T02680203  RH  072%=      5-min Rain = 0
KPFS 112215Z 17019G26KT 28/20 A2997 RMK A01 T02840200  RH  064%=      5-min Rain = 0
KPFS 112220Z 18017G23KT 29/19 A2997 RMK A01 T02940194  RH  058%=      5-min Rain = 0
KPFS 112225Z 18018KT 30/19 A2997 RMK A01 T02990186  RH  053%=      5-min Rain = 0
KPFS 112230Z 19015G24KT 30/19 A2997 RMK A01 T03030187  RH  053%=      5-min Rain = 0
KPFS 112235Z 19017G22KT 30/19 A2997 RMK A01 T03030187  RH  053%=      5-min Rain = 0
KPFS 112240Z 18017KT 30/19 A2997 RMK A01 T03020186  RH  053%=      5-min Rain = 0
KPFS 112245Z 19014KT 31/19 A2997 RMK A01 T03050186  RH  052%=      5-min Rain = 0
KPFS 112250Z 18015G20KT 31/18 A2997 RMK A01 T03050182  RH  050%=      5-min Rain = 0
KPFS 112255Z 18013G21KT 31/18 A2997 RMK A01 T03080180  RH  049%=      5-min Rain = 0
KPFS 112300Z 18016G21KT 31/18 A2996 RMK A01 T03080176  RH  048%=      5-min Rain = 0
KPFS 112305Z 17017G23KT 31/17 A2996 RMK A01 T03080169  RH  045%=      5-min Rain = 0
KPFS 112310Z 17016G21KT 31/17 A2996 RMK A01 T03100167  RH  044%=      5-min Rain = 0
KPFS 112315Z 17015G21KT 31/17 A2996 RMK A01 T03090168  RH  045%=      5-min Rain = 0
KPFS 112320Z 17014G19KT 31/17 A2996 RMK A01 T03100168  RH  045%=      5-min Rain = 0
KPFS 112325Z 17015KT 31/17 A2996 RMK A01 T03080169  RH  045%=      5-min Rain = 0
KPFS 112330Z 18016G22KT 31/17 A2996 RMK A01 T03070167  RH  045%=      5-min Rain = 0
KPFS 112335Z 17017KT 31/17 A2997 RMK A01 T03060166  RH  045%=      5-min Rain = 0
KPFS 112340Z 17016G23KT 31/17 A2997 RMK A01 T03050168  RH  046%=      5-min Rain = 0
KPFS 112345Z 17015G22KT 30/17 A2997 RMK A01 T03040167  RH  046%=      5-min Rain = 0
KPFS 112350Z 16015G20KT 30/17 A2997 RMK A01 T03030167  RH  046%=      5-min Rain = 0
KPFS 112355Z 16013G19KT 30/17 A2997 RMK A01 T03000168  RH  047%=      5-min Rain = 0
KPFS 120000Z 17013G19KT 30/17 A2997 RMK A01 T03000168  RH  047%=      5-min Rain = 0
KPFS 120005Z 18011G16KT 30/17 A2997 RMK A01 T03000169  RH  048%=      5-min Rain = 0
KPFS 120010Z 18012G18KT 30/17 A2997 RMK A01 T02980168  RH  048%=      5-min Rain = 0
KPFS 120015Z 17014G19KT 30/17 A2997 RMK A01 T02960169  RH  049%=      5-min Rain = 0
KPFS 120020Z 17015G20KT 29/17 A2998 RMK A01 T02930170  RH  050%=      5-min Rain = 0
KPFS 120025Z 18013G18KT 29/17 A2998 RMK A01 T02900171  RH  051%=      5-min Rain = 0
KPFS 120030Z 18011KT 29/17 A2998 RMK A01 T02880172  RH  052%=      5-min Rain = 0
KPFS 120035Z 18010G15KT 29/17 A2998 RMK A01 T02860173  RH  053%=      5-min Rain = 0
KPFS 120040Z 18011KT 29/17 A2998 RMK A01 T02850174  RH  054%=      5-min Rain = 0
KPFS 120045Z 18013KT 29/17 A2998 RMK A01 T02850174  RH  054%=      5-min Rain = 0
KPFS 120050Z 18010G15KT 28/18 A2998 RMK A01 T02840175  RH  054%=      5-min Rain = 0
KPFS 120055Z 18010G16KT 28/18 A2998 RMK A01 T02820175  RH  055%=      5-min Rain = 0
KPFS 120100Z 18009KT 28/18 A2998 RMK A01 T02810175  RH  055%=      5-min Rain = 0
KPFS 120105Z 18011KT 28/18 A2998 RMK A01 T02810175  RH  055%=      5-min Rain = 0
KPFS 120110Z 18009KT 28/18 A2998 RMK A01 T02790175  RH  056%=      5-min Rain = 0
KPFS 120115Z 18009KT 28/18 A2998 RMK A01 T02780175  RH  056%=      5-min Rain = 0
KPFS 120120Z 17009KT 28/18 A2998 RMK A01 T02760175  RH  057%=      5-min Rain = 0
KPFS 120125Z 17011KT 28/17 A2998 RMK A01 T02760173  RH  056%=      5-min Rain = 0
KPFS 120130Z 17011KT 28/17 A2998 RMK A01 T02760172  RH  056%=      5-min Rain = 0
KPFS 120135Z 17011G16KT 28/17 A2998 RMK A01 T02760169  RH  055%=      5-min Rain = 0
KPFS 120140Z 17012KT 28/17 A2999 RMK A01 T02760168  RH  054%=      5-min Rain = 0
KPFS 120145Z 17012KT 28/17 A2999 RMK A01 T02760168  RH  054%=      5-min Rain = 0
KPFS 120150Z 17012G17KT 28/17 A2999 RMK A01 T02750168  RH  055%=      5-min Rain = 0
KPFS 120155Z 17012G17KT 28/17 A2999 RMK A01 T02750168  RH  055%=      5-min Rain = 0
KPFS 120200Z 17010KT 27/17 A30 RMK A01 T02730169  RH  056%=      5-min Rain = 0
KPFS 120205Z 17011KT 27/17 A30 RMK A01 T02720170  RH  056%=      5-min Rain = 0
KPFS 120210Z 17010KT 27/17 A30 RMK A01 T02710170  RH  057%=      5-min Rain = 0
KPFS 120215Z 17011KT 27/17 A30 RMK A01 T02710170  RH  057%=      5-min Rain = 0
KPFS 120220Z 17011KT 27/17 A30 RMK A01 T02720171  RH  057%=      5-min Rain = 0
KPFS 120225Z 17011KT 27/17 A3001 RMK A01 T02710172  RH  057%=      5-min Rain = 0
KPFS 120230Z 17010KT 27/17 A3001 RMK A01 T02710172  RH  057%=      5-min Rain = 0
KPFS 120235Z 17011KT 27/17 A3001 RMK A01 T02700172  RH  058%=      5-min Rain = 0
KPFS 120240Z 17009KT 27/17 A3001 RMK A01 T02700172  RH  058%=      5-min Rain = 0
KPFS 120245Z 17009KT 27/17 A3001 RMK A01 T02700172  RH  058%=      5-min Rain = 0
KPFS 120250Z 17009KT 27/17 A3001 RMK A01 T02680172  RH  058%=      5-min Rain = 0
KPFS 120255Z 17008KT 27/17 A3001 RMK A01 T02680172  RH  059%=      5-min Rain = 0
KPFS 120300Z 17009KT 27/17 A3001 RMK A01 T02670173  RH  059%=      5-min Rain = 0
KPFS 120305Z 16009KT 27/17 A3001 RMK A01 T02670173  RH  059%=      5-min Rain = 0
KPFS 120310Z 16009KT 27/17 A3001 RMK A01 T02670173  RH  059%=      5-min Rain = 0
KPFS 120315Z 16009KT 27/17 A3001 RMK A01 T02660174  RH  060%=      5-min Rain = 0
KPFS 120320Z 15009KT 27/17 A3001 RMK A01 T02660173  RH  060%=      5-min Rain = 0
KPFS 120325Z 15010KT 27/17 A3001 RMK A01 T02660172  RH  059%=      5-min Rain = 0
KPFS 120330Z 15011KT 27/17 A3001 RMK A01 T02660172  RH  059%=      5-min Rain = 0
KPFS 120335Z 16011KT 27/17 A3001 RMK A01 T02660173  RH  059%=      5-min Rain = 0
KPFS 120340Z 16011KT 27/17 A3001 RMK A01 T02660173  RH  060%=      5-min Rain = 0
KPFS 120345Z 16011KT 27/17 A3001 RMK A01 T02650174  RH  060%=      5-min Rain = 0
KPFS 120350Z 16010KT 27/17 A3002 RMK A01 T02650174  RH  060%=      5-min Rain = 0
KPFS 120355Z 16011KT 27/17 A3002 RMK A01 T02650174  RH  061%=      5-min Rain = 0
KPFS 120400Z 16011KT 26/17 A3002 RMK A01 T02640174  RH  061%=      5-min Rain = 0
KPFS 120405Z 16010KT 26/18 A3002 RMK A01 T02630175  RH  061%=      5-min Rain = 0
KPFS 120410Z 16010KT 26/18 A3002 RMK A01 T02630175  RH  061%=      5-min Rain = 0
KPFS 120415Z 16009KT 26/18 A3002 RMK A01 T02630175  RH  062%=      5-min Rain = 0
KPFS 120420Z 16009KT 26/18 A3002 RMK A01 T02620175  RH  062%=      5-min Rain = 0
KPFS 120425Z 17009KT 26/18 A3002 RMK A01 T02620175  RH  062%=      5-min Rain = 0
KPFS 120430Z 16009KT 26/18 A3002 RMK A01 T02620175  RH  062%=      5-min Rain = 0
KPFS 120435Z 16009KT 26/18 A3002 RMK A01 T02630175  RH  062%=      5-min Rain = 0
KPFS 120440Z 16010KT 26/18 A3002 RMK A01 T02640175  RH  061%=      5-min Rain = 0
KPFS 120445Z 16010KT 26/18 A3002 RMK A01 T02640175  RH  061%=      5-min Rain = 0
KPFS 120450Z 16010KT 27/18 A3002 RMK A01 T02650175  RH  061%=      5-min Rain = 0
KPFS 120455Z 16009KT 26/17 A3002 RMK A01 T02640174  RH  061%=      5-min Rain = 0

Page generated in 0.0097 seconds.